Terminal Aerodrome Forecast
Issued by NWS

Home | Current Version | Previous Version | Graphics & Text | Print | Product List | Glossary On
Versions: 1 2 3 4 5 6 7 8 9 10 11 12 13 14 15 16 17 18 19 20 21 22
000
FTUS41 KCLE 210902 AAB
TAFFDY
TAF AMD
KFDY 210902Z 2109/2206 28011KT 6SM -SHRA SCT018 OVC060
      TEMPO 2109/2112 4SM -SHRA BR BKN018
     FM211200 29014KT 3SM -RA BR BKN009 OVC020
     FM211600 32010KT 6SM -RA OVC015
     FM220000 04009KT P6SM VCSH OVC025=

USA.gov is the U.S. government's official web portal to all federal, state and local government web resources and services.